sensor_id;sensor_type;location;lat;lon;timestamp;P1;durP1;ratioP1;P2;durP2;ratioP2
20731;SDS011;10527;52.124;5.196;2023-09-30T00:02:12;6.13;;;2.17;;
20731;SDS011;10527;52.124;5.196;2023-09-30T00:04:39;5.28;;;1.83;;
20731;SDS011;10527;52.124;5.196;2023-09-30T00:07:06;4.22;;;2.47;;
20731;SDS011;10527;52.124;5.196;2023-09-30T00:09:34;5.28;;;2.47;;
20731;SDS011;10527;52.124;5.196;2023-09-30T00:12:01;7.05;;;2.55;;
20731;SDS011;10527;52.124;5.196;2023-09-30T00:14:28;7.28;;;2.80;;
20731;SDS011;10527;52.124;5.196;2023-09-30T00:16:55;4.93;;;2.53;;
20731;SDS011;10527;52.124;5.196;2023-09-30T00:19:22;5.47;;;2.42;;
20731;SDS011;10527;52.124;5.196;2023-09-30T00:21:49;6.22;;;2.10;;
20731;SDS011;10527;52.124;5.196;2023-09-30T00:24:16;6.13;;;3.10;;
20731;SDS011;10527;52.124;5.196;2023-09-30T00:26:43;6.45;;;2.58;;
20731;SDS011;10527;52.124;5.196;2023-09-30T00:29:10;5.68;;;2.28;;
20731;SDS011;10527;52.124;5.196;2023-09-30T00:31:37;5.97;;;2.40;;
20731;SDS011;10527;52.124;5.196;2023-09-30T00:34:04;6.25;;;2.70;;
20731;SDS011;10527;52.124;5.196;2023-09-30T00:36:31;5.18;;;2.22;;
20731;SDS011;10527;52.124;5.196;2023-09-30T00:38:58;6.38;;;2.72;;
20731;SDS011;10527;52.124;5.196;2023-09-30T00:41:28;5.53;;;2.80;;
20731;SDS011;10527;52.124;5.196;2023-09-30T00:43:55;5.50;;;2.65;;
20731;SDS011;10527;52.124;5.196;2023-09-30T00:46:26;5.03;;;2.45;;
20731;SDS011;10527;52.124;5.196;2023-09-30T00:49:01;4.65;;;2.72;;
20731;SDS011;10527;52.124;5.196;2023-09-30T00:51:29;5.57;;;2.58;;
20731;SDS011;10527;52.124;5.196;2023-09-30T00:53:59;6.10;;;3.10;;
20731;SDS011;10527;52.124;5.196;2023-09-30T00:56:29;6.75;;;3.63;;
20731;SDS011;10527;52.124;5.196;2023-09-30T00:58:57;7.35;;;3.33;;
20731;SDS011;10527;52.124;5.196;2023-09-30T01:01:25;8.15;;;3.80;;
20731;SDS011;10527;52.124;5.196;2023-09-30T01:03:52;6.07;;;2.92;;
20731;SDS011;10527;52.124;5.196;2023-09-30T01:06:20;5.90;;;2.90;;
20731;SDS011;10527;52.124;5.196;2023-09-30T01:08:47;6.47;;;3.20;;
20731;SDS011;10527;52.124;5.196;2023-09-30T01:11:14;6.38;;;2.90;;
20731;SDS011;10527;52.124;5.196;2023-09-30T01:13:46;7.22;;;2.72;;
20731;SDS011;10527;52.124;5.196;2023-09-30T01:16:13;6.32;;;3.10;;
20731;SDS011;10527;52.124;5.196;2023-09-30T01:18:41;7.43;;;3.58;;
20731;SDS011;10527;52.124;5.196;2023-09-30T01:21:10;6.55;;;2.90;;
20731;SDS011;10527;52.124;5.196;2023-09-30T01:23:38;5.22;;;3.00;;
20731;SDS011;10527;52.124;5.196;2023-09-30T01:26:08;6.20;;;2.63;;
20731;SDS011;10527;52.124;5.196;2023-09-30T01:28:36;7.28;;;2.90;;
20731;SDS011;10527;52.124;5.196;2023-09-30T01:31:04;5.88;;;2.85;;
20731;SDS011;10527;52.124;5.196;2023-09-30T01:33:31;6.57;;;3.25;;
20731;SDS011;10527;52.124;5.196;2023-09-30T01:35:59;6.28;;;2.88;;
20731;SDS011;10527;52.124;5.196;2023-09-30T01:38:29;7.13;;;3.47;;
20731;SDS011;10527;52.124;5.196;2023-09-30T01:40:55;6.72;;;3.25;;
20731;SDS011;10527;52.124;5.196;2023-09-30T01:43:26;7.88;;;3.20;;
20731;SDS011;10527;52.124;5.196;2023-09-30T01:45:53;8.05;;;3.63;;
20731;SDS011;10527;52.124;5.196;2023-09-30T01:48:21;6.90;;;3.22;;
20731;SDS011;10527;52.124;5.196;2023-09-30T01:50:48;6.43;;;3.58;;
20731;SDS011;10527;52.124;5.196;2023-09-30T01:53:15;6.45;;;3.53;;
20731;SDS011;10527;52.124;5.196;2023-09-30T01:55:42;7.43;;;3.17;;
20731;SDS011;10527;52.124;5.196;2023-09-30T01:58:10;6.40;;;3.10;;
20731;SDS011;10527;52.124;5.196;2023-09-30T02:00:37;5.60;;;3.05;;
20731;SDS011;10527;52.124;5.196;2023-09-30T02:03:04;8.20;;;3.67;;
20731;SDS011;10527;52.124;5.196;2023-09-30T02:05:31;5.45;;;3.40;;
20731;SDS011;10527;52.124;5.196;2023-09-30T02:07:59;8.85;;;2.85;;
20731;SDS011;10527;52.124;5.196;2023-09-30T02:10:31;5.25;;;2.90;;
20731;SDS011;10527;52.124;5.196;2023-09-30T02:13:01;7.57;;;3.42;;
20731;SDS011;10527;52.124;5.196;2023-09-30T02:15:32;6.97;;;3.40;;
20731;SDS011;10527;52.124;5.196;2023-09-30T02:18:01;8.75;;;3.75;;
20731;SDS011;10527;52.124;5.196;2023-09-30T02:20:30;6.32;;;3.08;;
20731;SDS011;10527;52.124;5.196;2023-09-30T02:22:57;6.70;;;3.30;;
20731;SDS011;10527;52.124;5.196;2023-09-30T02:25:25;7.88;;;3.45;;
20731;SDS011;10527;52.124;5.196;2023-09-30T02:27:53;6.07;;;3.50;;
20731;SDS011;10527;52.124;5.196;2023-09-30T02:30:20;8.15;;;3.80;;
20731;SDS011;10527;52.124;5.196;2023-09-30T02:32:48;3.97;;;2.90;;
20731;SDS011;10527;52.124;5.196;2023-09-30T02:35:14;5.22;;;3.47;;
20731;SDS011;10527;52.124;5.196;2023-09-30T02:37:42;5.10;;;3.08;;
20731;SDS011;10527;52.124;5.196;2023-09-30T02:40:09;6.90;;;3.40;;
20731;SDS011;10527;52.124;5.196;2023-09-30T02:42:37;7.88;;;3.97;;
20731;SDS011;10527;52.124;5.196;2023-09-30T02:45:08;7.68;;;3.90;;
20731;SDS011;10527;52.124;5.196;2023-09-30T02:47:38;9.00;;;3.92;;
20731;SDS011;10527;52.124;5.196;2023-09-30T02:50:06;6.97;;;3.97;;
20731;SDS011;10527;52.124;5.196;2023-09-30T02:52:38;12.27;;;4.03;;
20731;SDS011;10527;52.124;5.196;2023-09-30T02:55:10;5.47;;;3.25;;
20731;SDS011;10527;52.124;5.196;2023-09-30T02:57:38;5.53;;;3.38;;
20731;SDS011;10527;52.124;5.196;2023-09-30T03:00:05;5.35;;;3.50;;
20731;SDS011;10527;52.124;5.196;2023-09-30T03:02:51;7.53;;;3.85;;
20731;SDS011;10527;52.124;5.196;2023-09-30T03:05:24;7.55;;;4.05;;
20731;SDS011;10527;52.124;5.196;2023-09-30T03:07:51;6.85;;;3.63;;
20731;SDS011;10527;52.124;5.196;2023-09-30T03:10:18;6.68;;;3.75;;
20731;SDS011;10527;52.124;5.196;2023-09-30T03:12:51;6.65;;;3.92;;
20731;SDS011;10527;52.124;5.196;2023-09-30T03:15:21;7.13;;;4.03;;
20731;SDS011;10527;52.124;5.196;2023-09-30T03:17:49;9.95;;;4.25;;
20731;SDS011;10527;52.124;5.196;2023-09-30T03:20:19;7.13;;;4.00;;
20731;SDS011;10527;52.124;5.196;2023-09-30T03:22:47;6.50;;;3.72;;
20731;SDS011;10527;52.124;5.196;2023-09-30T03:25:15;6.00;;;3.53;;
20731;SDS011;10527;52.124;5.196;2023-09-30T03:27:47;7.55;;;3.92;;
20731;SDS011;10527;52.124;5.196;2023-09-30T03:30:16;6.13;;;3.80;;
20731;SDS011;10527;52.124;5.196;2023-09-30T03:32:46;7.97;;;3.90;;
20731;SDS011;10527;52.124;5.196;2023-09-30T03:35:15;7.15;;;3.38;;
20731;SDS011;10527;52.124;5.196;2023-09-30T03:37:46;5.82;;;4.10;;
20731;SDS011;10527;52.124;5.196;2023-09-30T03:40:14;6.95;;;4.18;;
20731;SDS011;10527;52.124;5.196;2023-09-30T03:42:46;6.18;;;3.70;;
20731;SDS011;10527;52.124;5.196;2023-09-30T03:45:16;8.20;;;4.10;;
20731;SDS011;10527;52.124;5.196;2023-09-30T03:47:46;6.65;;;3.78;;
20731;SDS011;10527;52.124;5.196;2023-09-30T03:50:14;7.32;;;3.83;;
20731;SDS011;10527;52.124;5.196;2023-09-30T03:52:42;5.93;;;3.50;;
20731;SDS011;10527;52.124;5.196;2023-09-30T03:55:13;6.53;;;4.20;;
20731;SDS011;10527;52.124;5.196;2023-09-30T03:57:48;5.95;;;3.63;;
20731;SDS011;10527;52.124;5.196;2023-09-30T04:00:17;6.97;;;4.07;;
20731;SDS011;10527;52.124;5.196;2023-09-30T04:02:47;8.73;;;4.68;;
20731;SDS011;10527;52.124;5.196;2023-09-30T04:05:17;7.78;;;3.75;;
20731;SDS011;10527;52.124;5.196;2023-09-30T04:07:46;6.43;;;4.00;;
20731;SDS011;10527;52.124;5.196;2023-09-30T04:10:13;6.55;;;4.28;;
20731;SDS011;10527;52.124;5.196;2023-09-30T04:12:41;9.18;;;4.55;;
20731;SDS011;10527;52.124;5.196;2023-09-30T04:15:08;8.63;;;4.90;;
20731;SDS011;10527;52.124;5.196;2023-09-30T04:17:39;7.35;;;4.40;;
20731;SDS011;10527;52.124;5.196;2023-09-30T04:20:06;5.15;;;3.53;;
20731;SDS011;10527;52.124;5.196;2023-09-30T04:22:37;8.13;;;4.65;;
20731;SDS011;10527;52.124;5.196;2023-09-30T04:27:36;6.82;;;3.90;;
20731;SDS011;10527;52.124;5.196;2023-09-30T04:30:04;5.40;;;4.15;;
20731;SDS011;10527;52.124;5.196;2023-09-30T04:32:35;8.23;;;4.65;;
20731;SDS011;10527;52.124;5.196;2023-09-30T04:35:05;9.20;;;4.65;;
20731;SDS011;10527;52.124;5.196;2023-09-30T04:37:34;7.30;;;4.70;;
20731;SDS011;10527;52.124;5.196;2023-09-30T04:40:04;7.65;;;4.10;;
20731;SDS011;10527;52.124;5.196;2023-09-30T04:42:36;6.28;;;3.63;;
20731;SDS011;10527;52.124;5.196;2023-09-30T04:45:03;9.25;;;4.55;;
20731;SDS011;10527;52.124;5.196;2023-09-30T04:47:33;6.47;;;4.43;;
20731;SDS011;10527;52.124;5.196;2023-09-30T04:50:01;7.07;;;4.10;;
20731;SDS011;10527;52.124;5.196;2023-09-30T04:52:31;8.65;;;4.60;;
20731;SDS011;10527;52.124;5.196;2023-09-30T04:54:58;7.00;;;3.92;;
20731;SDS011;10527;52.124;5.196;2023-09-30T04:57:26;9.10;;;4.53;;
20731;SDS011;10527;52.124;5.196;2023-09-30T04:59:54;6.97;;;4.38;;
20731;SDS011;10527;52.124;5.196;2023-09-30T05:02:22;8.40;;;4.85;;
20731;SDS011;10527;52.124;5.196;2023-09-30T05:04:52;8.20;;;4.97;;
20731;SDS011;10527;52.124;5.196;2023-09-30T05:07:22;7.55;;;4.78;;
20731;SDS011;10527;52.124;5.196;2023-09-30T05:09:49;7.97;;;5.63;;
20731;SDS011;10527;52.124;5.196;2023-09-30T05:12:16;6.82;;;4.82;;
20731;SDS011;10527;52.124;5.196;2023-09-30T05:14:43;7.05;;;4.53;;
20731;SDS011;10527;52.124;5.196;2023-09-30T05:17:10;6.78;;;4.47;;
20731;SDS011;10527;52.124;5.196;2023-09-30T05:19:38;7.88;;;4.68;;
20731;SDS011;10527;52.124;5.196;2023-09-30T05:22:05;7.88;;;4.97;;
20731;SDS011;10527;52.124;5.196;2023-09-30T05:24:32;7.50;;;4.40;;
20731;SDS011;10527;52.124;5.196;2023-09-30T05:27:01;7.28;;;4.80;;
20731;SDS011;10527;52.124;5.196;2023-09-30T05:29:30;9.32;;;5.57;;
20731;SDS011;10527;52.124;5.196;2023-09-30T05:31:59;8.48;;;5.07;;
20731;SDS011;10527;52.124;5.196;2023-09-30T05:34:26;7.75;;;5.15;;
20731;SDS011;10527;52.124;5.196;2023-09-30T05:36:54;6.40;;;5.32;;
20731;SDS011;10527;52.124;5.196;2023-09-30T05:39:21;7.45;;;5.28;;
20731;SDS011;10527;52.124;5.196;2023-09-30T05:41:48;7.95;;;4.82;;
20731;SDS011;10527;52.124;5.196;2023-09-30T05:44:14;8.30;;;5.57;;
20731;SDS011;10527;52.124;5.196;2023-09-30T05:46:41;9.40;;;5.30;;
20731;SDS011;10527;52.124;5.196;2023-09-30T05:49:09;10.70;;;5.78;;
20731;SDS011;10527;52.124;5.196;2023-09-30T05:51:40;7.57;;;5.22;;
20731;SDS011;10527;52.124;5.196;2023-09-30T05:54:08;8.88;;;6.20;;
20731;SDS011;10527;52.124;5.196;2023-09-30T05:56:38;9.07;;;5.97;;
20731;SDS011;10527;52.124;5.196;2023-09-30T05:59:09;9.85;;;6.20;;
20731;SDS011;10527;52.124;5.196;2023-09-30T06:01:36;7.53;;;5.65;;
20731;SDS011;10527;52.124;5.196;2023-09-30T06:04:04;7.78;;;5.63;;
20731;SDS011;10527;52.124;5.196;2023-09-30T06:06:31;9.55;;;6.15;;
20731;SDS011;10527;52.124;5.196;2023-09-30T06:08:59;9.75;;;6.55;;
20731;SDS011;10527;52.124;5.196;2023-09-30T06:11:26;6.90;;;5.78;;
20731;SDS011;10527;52.124;5.196;2023-09-30T06:13:56;8.38;;;5.88;;
20731;SDS011;10527;52.124;5.196;2023-09-30T06:16:27;10.40;;;6.40;;
20731;SDS011;10527;52.124;5.196;2023-09-30T06:18:58;9.88;;;6.35;;
20731;SDS011;10527;52.124;5.196;2023-09-30T06:21:26;10.20;;;6.32;;
20731;SDS011;10527;52.124;5.196;2023-09-30T06:23:56;9.93;;;6.43;;
20731;SDS011;10527;52.124;5.196;2023-09-30T06:26:34;8.60;;;5.93;;
20731;SDS011;10527;52.124;5.196;2023-09-30T06:29:01;9.57;;;7.32;;
20731;SDS011;10527;52.124;5.196;2023-09-30T06:31:27;10.35;;;7.32;;
20731;SDS011;10527;52.124;5.196;2023-09-30T06:33:55;11.77;;;7.72;;
20731;SDS011;10527;52.124;5.196;2023-09-30T06:36:24;11.38;;;6.47;;
20731;SDS011;10527;52.124;5.196;2023-09-30T06:38:51;9.30;;;6.72;;
20731;SDS011;10527;52.124;5.196;2023-09-30T06:41:18;9.20;;;6.72;;
20731;SDS011;10527;52.124;5.196;2023-09-30T06:43:45;9.25;;;6.20;;
20731;SDS011;10527;52.124;5.196;2023-09-30T06:46:13;9.75;;;7.25;;
20731;SDS011;10527;52.124;5.196;2023-09-30T06:48:40;13.20;;;7.50;;
20731;SDS011;10527;52.124;5.196;2023-09-30T06:51:08;14.32;;;9.07;;
20731;SDS011;10527;52.124;5.196;2023-09-30T06:53:43;10.20;;;7.10;;
20731;SDS011;10527;52.124;5.196;2023-09-30T06:56:11;10.18;;;7.95;;
20731;SDS011;10527;52.124;5.196;2023-09-30T06:58:43;12.02;;;7.65;;
20731;SDS011;10527;52.124;5.196;2023-09-30T07:01:14;9.93;;;7.50;;
20731;SDS011;10527;52.124;5.196;2023-09-30T07:03:43;9.43;;;7.18;;
20731;SDS011;10527;52.124;5.196;2023-09-30T07:06:10;9.95;;;7.43;;
20731;SDS011;10527;52.124;5.196;2023-09-30T07:08:37;12.88;;;8.85;;
20731;SDS011;10527;52.124;5.196;2023-09-30T07:11:04;12.20;;;8.38;;
20731;SDS011;10527;52.124;5.196;2023-09-30T07:13:31;12.75;;;8.23;;
20731;SDS011;10527;52.124;5.196;2023-09-30T07:15:58;15.68;;;9.00;;
20731;SDS011;10527;52.124;5.196;2023-09-30T07:18:25;11.50;;;8.82;;
20731;SDS011;10527;52.124;5.196;2023-09-30T07:20:52;11.77;;;8.43;;
20731;SDS011;10527;52.124;5.196;2023-09-30T07:23:19;17.83;;;10.27;;
20731;SDS011;10527;52.124;5.196;2023-09-30T07:25:47;16.88;;;9.18;;
20731;SDS011;10527;52.124;5.196;2023-09-30T07:28:14;11.77;;;7.82;;
20731;SDS011;10527;52.124;5.196;2023-09-30T07:30:41;11.45;;;7.43;;
20731;SDS011;10527;52.124;5.196;2023-09-30T07:33:10;12.95;;;9.13;;
20731;SDS011;10527;52.124;5.196;2023-09-30T07:35:37;12.57;;;7.72;;
20731;SDS011;10527;52.124;5.196;2023-09-30T07:38:05;13.27;;;8.63;;
20731;SDS011;10527;52.124;5.196;2023-09-30T07:40:32;10.68;;;7.93;;
20731;SDS011;10527;52.124;5.196;2023-09-30T07:42:59;14.40;;;8.18;;
20731;SDS011;10527;52.124;5.196;2023-09-30T07:45:26;15.00;;;9.05;;
20731;SDS011;10527;52.124;5.196;2023-09-30T07:47:54;11.93;;;8.48;;
20731;SDS011;10527;52.124;5.196;2023-09-30T07:50:21;11.85;;;8.73;;
20731;SDS011;10527;52.124;5.196;2023-09-30T07:52:48;12.13;;;8.27;;
20731;SDS011;10527;52.124;5.196;2023-09-30T07:55:15;13.73;;;9.70;;
20731;SDS011;10527;52.124;5.196;2023-09-30T07:57:45;12.30;;;8.80;;
20731;SDS011;10527;52.124;5.196;2023-09-30T08:00:12;11.98;;;8.80;;
20731;SDS011;10527;52.124;5.196;2023-09-30T08:02:44;13.13;;;9.52;;
20731;SDS011;10527;52.124;5.196;2023-09-30T08:05:11;14.13;;;8.55;;
20731;SDS011;10527;52.124;5.196;2023-09-30T08:07:41;13.27;;;8.57;;
20731;SDS011;10527;52.124;5.196;2023-09-30T08:10:08;12.10;;;8.38;;
20731;SDS011;10527;52.124;5.196;2023-09-30T08:12:39;14.65;;;9.48;;
20731;SDS011;10527;52.124;5.196;2023-09-30T08:15:07;11.50;;;8.38;;
20731;SDS011;10527;52.124;5.196;2023-09-30T08:17:38;14.35;;;9.60;;
20731;SDS011;10527;52.124;5.196;2023-09-30T08:20:05;12.75;;;9.13;;
20731;SDS011;10527;52.124;5.196;2023-09-30T08:22:37;14.60;;;9.43;;
20731;SDS011;10527;52.124;5.196;2023-09-30T08:25:05;12.15;;;8.88;;
20731;SDS011;10527;52.124;5.196;2023-09-30T08:27:32;13.45;;;8.27;;
20731;SDS011;10527;52.124;5.196;2023-09-30T08:29:59;10.80;;;8.57;;
20731;SDS011;10527;52.124;5.196;2023-09-30T08:32:37;14.65;;;8.65;;
20731;SDS011;10527;52.124;5.196;2023-09-30T08:35:05;12.35;;;8.25;;
20731;SDS011;10527;52.124;5.196;2023-09-30T08:37:40;11.10;;;8.05;;
20731;SDS011;10527;52.124;5.196;2023-09-30T08:40:07;11.80;;;7.68;;
20731;SDS011;10527;52.124;5.196;2023-09-30T08:42:36;11.70;;;7.90;;
20731;SDS011;10527;52.124;5.196;2023-09-30T08:45:05;11.63;;;6.63;;
20731;SDS011;10527;52.124;5.196;2023-09-30T08:47:40;11.65;;;6.57;;
20731;SDS011;10527;52.124;5.196;2023-09-30T08:50:09;11.48;;;6.97;;
20731;SDS011;10527;52.124;5.196;2023-09-30T08:52:40;8.75;;;5.63;;
20731;SDS011;10527;52.124;5.196;2023-09-30T08:55:10;7.13;;;5.00;;
20731;SDS011;10527;52.124;5.196;2023-09-30T08:57:39;10.13;;;6.50;;
20731;SDS011;10527;52.124;5.196;2023-09-30T09:00:08;8.32;;;5.13;;
20731;SDS011;10527;52.124;5.196;2023-09-30T09:02:40;9.93;;;5.43;;
20731;SDS011;10527;52.124;5.196;2023-09-30T09:05:09;9.60;;;5.75;;
20731;SDS011;10527;52.124;5.196;2023-09-30T09:07:37;8.57;;;5.15;;
20731;SDS011;10527;52.124;5.196;2023-09-30T09:10:11;9.80;;;5.18;;
20731;SDS011;10527;52.124;5.196;2023-09-30T09:12:41;10.68;;;5.05;;
20731;SDS011;10527;52.124;5.196;2023-09-30T09:15:26;6.38;;;4.38;;
20731;SDS011;10527;52.124;5.196;2023-09-30T09:17:57;7.75;;;4.88;;
20731;SDS011;10527;52.124;5.196;2023-09-30T09:20:24;9.80;;;5.43;;
20731;SDS011;10527;52.124;5.196;2023-09-30T09:22:53;10.30;;;4.03;;
20731;SDS011;10527;52.124;5.196;2023-09-30T09:25:22;9.35;;;4.68;;
20731;SDS011;10527;52.124;5.196;2023-09-30T09:27:50;11.75;;;5.63;;
20731;SDS011;10527;52.124;5.196;2023-09-30T09:30:20;8.77;;;4.60;;
20731;SDS011;10527;52.124;5.196;2023-09-30T09:35:26;8.80;;;4.47;;
20731;SDS011;10527;52.124;5.196;2023-09-30T09:38:00;9.93;;;5.75;;
20731;SDS011;10527;52.124;5.196;2023-09-30T09:40:31;10.23;;;5.18;;
20731;SDS011;10527;52.124;5.196;2023-09-30T09:43:04;10.88;;;4.47;;
20731;SDS011;10527;52.124;5.196;2023-09-30T09:45:33;10.23;;;4.80;;
20731;SDS011;10527;52.124;5.196;2023-09-30T09:48:04;9.38;;;4.00;;
20731;SDS011;10527;52.124;5.196;2023-09-30T09:50:33;12.63;;;4.00;;
20731;SDS011;10527;52.124;5.196;2023-09-30T09:53:06;8.10;;;2.90;;
20731;SDS011;10527;52.124;5.196;2023-09-30T09:55:35;6.47;;;2.80;;
20731;SDS011;10527;52.124;5.196;2023-09-30T09:58:05;5.32;;;2.60;;
20731;SDS011;10527;52.124;5.196;2023-09-30T10:00:35;7.35;;;2.80;;
20731;SDS011;10527;52.124;5.196;2023-09-30T10:03:03;7.75;;;2.70;;
20731;SDS011;10527;52.124;5.196;2023-09-30T10:05:30;7.55;;;2.22;;
20731;SDS011;10527;52.124;5.196;2023-09-30T10:08:00;5.00;;;2.28;;
20731;SDS011;10527;52.124;5.196;2023-09-30T10:10:43;8.68;;;2.60;;
20731;SDS011;10527;52.124;5.196;2023-09-30T10:19:11;8.77;;;3.05;;
20731;SDS011;10527;52.124;5.196;2023-09-30T10:22:30;7.80;;;2.85;;
20731;SDS011;10527;52.124;5.196;2023-09-30T10:24:51;6.70;;;3.50;;
20731;SDS011;10527;52.124;5.196;2023-09-30T10:29:49;8.23;;;3.78;;
20731;SDS011;10527;52.124;5.196;2023-09-30T10:38:36;7.32;;;3.63;;
20731;SDS011;10527;52.124;5.196;2023-09-30T10:41:00;6.90;;;3.75;;
20731;SDS011;10527;52.124;5.196;2023-09-30T10:43:34;7.40;;;3.70;;
20731;SDS011;10527;52.124;5.196;2023-09-30T10:48:53;8.40;;;3.17;;
20731;SDS011;10527;52.124;5.196;2023-09-30T10:51:40;11.13;;;3.38;;
20731;SDS011;10527;52.124;5.196;2023-09-30T10:54:08;10.63;;;3.60;;
20731;SDS011;10527;52.124;5.196;2023-09-30T10:56:35;11.63;;;3.60;;
20731;SDS011;10527;52.124;5.196;2023-09-30T10:59:02;6.78;;;2.72;;
20731;SDS011;10527;52.124;5.196;2023-09-30T11:01:33;10.57;;;3.58;;
20731;SDS011;10527;52.124;5.196;2023-09-30T11:04:02;7.40;;;3.72;;
20731;SDS011;10527;52.124;5.196;2023-09-30T11:06:34;7.05;;;2.15;;
20731;SDS011;10527;52.124;5.196;2023-09-30T11:09:07;8.35;;;2.75;;
20731;SDS011;10527;52.124;5.196;2023-09-30T11:11:40;7.18;;;2.30;;
20731;SDS011;10527;52.124;5.196;2023-09-30T11:16:58;6.82;;;2.38;;
20731;SDS011;10527;52.124;5.196;2023-09-30T11:19:35;9.00;;;3.20;;
20731;SDS011;10527;52.124;5.196;2023-09-30T11:22:11;4.50;;;1.75;;
20731;SDS011;10527;52.124;5.196;2023-09-30T11:24:43;6.38;;;1.90;;
20731;SDS011;10527;52.124;5.196;2023-09-30T11:27:12;5.35;;;2.55;;
20731;SDS011;10527;52.124;5.196;2023-09-30T11:29:49;5.03;;;2.10;;
20731;SDS011;10527;52.124;5.196;2023-09-30T11:32:23;7.72;;;2.53;;
20731;SDS011;10527;52.124;5.196;2023-09-30T11:34:55;4.70;;;1.60;;
20731;SDS011;10527;52.124;5.196;2023-09-30T11:37:22;4.75;;;1.60;;
20731;SDS011;10527;52.124;5.196;2023-09-30T11:39:49;5.55;;;1.95;;
20731;SDS011;10527;52.124;5.196;2023-09-30T11:42:17;3.72;;;1.70;;
20731;SDS011;10527;52.124;5.196;2023-09-30T11:44:46;6.65;;;2.20;;
20731;SDS011;10527;52.124;5.196;2023-09-30T11:47:13;6.25;;;1.85;;
20731;SDS011;10527;52.124;5.196;2023-09-30T11:49:45;6.32;;;2.00;;
20731;SDS011;10527;52.124;5.196;2023-09-30T11:52:25;5.32;;;2.00;;
20731;SDS011;10527;52.124;5.196;2023-09-30T11:54:56;8.55;;;1.95;;
20731;SDS011;10527;52.124;5.196;2023-09-30T11:57:24;5.22;;;1.83;;
20731;SDS011;10527;52.124;5.196;2023-09-30T11:59:51;4.60;;;1.63;;
20731;SDS011;10527;52.124;5.196;2023-09-30T12:02:18;4.57;;;1.70;;
20731;SDS011;10527;52.124;5.196;2023-09-30T12:04:46;6.28;;;1.70;;
20731;SDS011;10527;52.124;5.196;2023-09-30T12:07:14;4.90;;;2.03;;
20731;SDS011;10527;52.124;5.196;2023-09-30T12:09:41;3.10;;;1.60;;
20731;SDS011;10527;52.124;5.196;2023-09-30T12:12:09;5.78;;;1.75;;
20731;SDS011;10527;52.124;5.196;2023-09-30T12:14:38;6.15;;;2.17;;
20731;SDS011;10527;52.124;5.196;2023-09-30T12:17:06;6.63;;;2.25;;
20731;SDS011;10527;52.124;5.196;2023-09-30T12:19:39;6.85;;;2.17;;
20731;SDS011;10527;52.124;5.196;2023-09-30T12:22:08;6.80;;;3.10;;
20731;SDS011;10527;52.124;5.196;2023-09-30T12:24:37;4.45;;;2.17;;
20731;SDS011;10527;52.124;5.196;2023-09-30T12:27:08;6.85;;;2.55;;
20731;SDS011;10527;52.124;5.196;2023-09-30T12:29:35;9.27;;;2.85;;
20731;SDS011;10527;52.124;5.196;2023-09-30T12:32:04;9.05;;;2.90;;
20731;SDS011;10527;52.124;5.196;2023-09-30T12:34:32;6.60;;;2.38;;
20731;SDS011;10527;52.124;5.196;2023-09-30T12:37:06;4.32;;;2.47;;
20731;SDS011;10527;52.124;5.196;2023-09-30T12:39:33;6.50;;;2.30;;
20731;SDS011;10527;52.124;5.196;2023-09-30T12:42:00;4.93;;;2.35;;
20731;SDS011;10527;52.124;5.196;2023-09-30T12:44:27;7.65;;;2.08;;
20731;SDS011;10527;52.124;5.196;2023-09-30T12:46:54;7.70;;;2.30;;
20731;SDS011;10527;52.124;5.196;2023-09-30T12:49:24;4.30;;;1.90;;
20731;SDS011;10527;52.124;5.196;2023-09-30T12:51:52;5.53;;;2.13;;
20731;SDS011;10527;52.124;5.196;2023-09-30T12:54:19;6.22;;;2.03;;
20731;SDS011;10527;52.124;5.196;2023-09-30T12:56:46;5.55;;;1.65;;
20731;SDS011;10527;52.124;5.196;2023-09-30T12:59:15;6.65;;;1.55;;
20731;SDS011;10527;52.124;5.196;2023-09-30T13:01:50;6.63;;;2.00;;
20731;SDS011;10527;52.124;5.196;2023-09-30T13:04:17;5.13;;;1.50;;
20731;SDS011;10527;52.124;5.196;2023-09-30T13:06:45;8.95;;;2.28;;
20731;SDS011;10527;52.124;5.196;2023-09-30T13:09:12;6.88;;;2.97;;
20731;SDS011;10527;52.124;5.196;2023-09-30T13:11:39;5.38;;;2.53;;
20731;SDS011;10527;52.124;5.196;2023-09-30T13:14:06;13.23;;;3.30;;
20731;SDS011;10527;52.124;5.196;2023-09-30T13:16:33;9.38;;;2.25;;
20731;SDS011;10527;52.124;5.196;2023-09-30T13:19:00;7.63;;;1.50;;
20731;SDS011;10527;52.124;5.196;2023-09-30T13:21:28;7.38;;;2.42;;
20731;SDS011;10527;52.124;5.196;2023-09-30T13:23:55;6.18;;;1.80;;
20731;SDS011;10527;52.124;5.196;2023-09-30T13:26:24;5.95;;;2.13;;
20731;SDS011;10527;52.124;5.196;2023-09-30T13:28:51;6.65;;;1.95;;
20731;SDS011;10527;52.124;5.196;2023-09-30T13:31:18;3.65;;;1.85;;
20731;SDS011;10527;52.124;5.196;2023-09-30T13:33:45;6.85;;;2.25;;
20731;SDS011;10527;52.124;5.196;2023-09-30T13:36:17;7.07;;;2.78;;
20731;SDS011;10527;52.124;5.196;2023-09-30T13:38:44;5.72;;;2.10;;
20731;SDS011;10527;52.124;5.196;2023-09-30T13:41:12;7.72;;;2.20;;
20731;SDS011;10527;52.124;5.196;2023-09-30T13:43:42;6.93;;;2.00;;
20731;SDS011;10527;52.124;5.196;2023-09-30T13:46:08;5.57;;;1.65;;
20731;SDS011;10527;52.124;5.196;2023-09-30T13:48:35;5.32;;;2.00;;
20731;SDS011;10527;52.124;5.196;2023-09-30T13:51:06;5.82;;;2.42;;
20731;SDS011;10527;52.124;5.196;2023-09-30T13:53:39;6.93;;;2.60;;
20731;SDS011;10527;52.124;5.196;2023-09-30T13:56:06;5.30;;;2.63;;
20731;SDS011;10527;52.124;5.196;2023-09-30T13:58:33;5.22;;;2.05;;
20731;SDS011;10527;52.124;5.196;2023-09-30T14:01:00;6.10;;;2.00;;
20731;SDS011;10527;52.124;5.196;2023-09-30T14:03:28;3.25;;;1.55;;
20731;SDS011;10527;52.124;5.196;2023-09-30T14:05:56;5.72;;;1.95;;
20731;SDS011;10527;52.124;5.196;2023-09-30T14:08:23;7.53;;;2.03;;
20731;SDS011;10527;52.124;5.196;2023-09-30T14:10:50;7.15;;;2.13;;
20731;SDS011;10527;52.124;5.196;2023-09-30T14:13:18;5.30;;;1.50;;
20731;SDS011;10527;52.124;5.196;2023-09-30T14:15:45;8.07;;;2.10;;
20731;SDS011;10527;52.124;5.196;2023-09-30T14:18:15;3.45;;;1.33;;
20731;SDS011;10527;52.124;5.196;2023-09-30T14:20:42;8.52;;;2.33;;
20731;SDS011;10527;52.124;5.196;2023-09-30T14:23:09;6.72;;;1.90;;
20731;SDS011;10527;52.124;5.196;2023-09-30T14:25:36;6.10;;;2.17;;
20731;SDS011;10527;52.124;5.196;2023-09-30T14:28:03;5.65;;;1.85;;
20731;SDS011;10527;52.124;5.196;2023-09-30T14:30:30;8.95;;;2.60;;
20731;SDS011;10527;52.124;5.196;2023-09-30T14:32:58;6.47;;;2.35;;
20731;SDS011;10527;52.124;5.196;2023-09-30T14:35:25;7.65;;;2.03;;
20731;SDS011;10527;52.124;5.196;2023-09-30T14:37:52;5.82;;;2.08;;
20731;SDS011;10527;52.124;5.196;2023-09-30T14:40:20;6.60;;;2.38;;
20731;SDS011;10527;52.124;5.196;2023-09-30T14:42:47;3.75;;;1.60;;
20731;SDS011;10527;52.124;5.196;2023-09-30T14:45:15;6.47;;;2.08;;
20731;SDS011;10527;52.124;5.196;2023-09-30T14:47:42;8.93;;;2.40;;
20731;SDS011;10527;52.124;5.196;2023-09-30T14:50:09;6.30;;;2.28;;
20731;SDS011;10527;52.124;5.196;2023-09-30T14:52:36;8.95;;;2.17;;
20731;SDS011;10527;52.124;5.196;2023-09-30T14:55:03;5.38;;;2.50;;
20731;SDS011;10527;52.124;5.196;2023-09-30T14:57:31;5.68;;;2.30;;
20731;SDS011;10527;52.124;5.196;2023-09-30T15:00:00;6.00;;;1.98;;
20731;SDS011;10527;52.124;5.196;2023-09-30T15:02:27;7.10;;;2.17;;
20731;SDS011;10527;52.124;5.196;2023-09-30T15:04:54;8.45;;;2.53;;
20731;SDS011;10527;52.124;5.196;2023-09-30T15:07:21;5.28;;;2.00;;
20731;SDS011;10527;52.124;5.196;2023-09-30T15:09:48;5.57;;;2.03;;
20731;SDS011;10527;52.124;5.196;2023-09-30T15:12:17;6.88;;;2.05;;
20731;SDS011;10527;52.124;5.196;2023-09-30T15:14:44;6.43;;;2.10;;
20731;SDS011;10527;52.124;5.196;2023-09-30T15:17:11;8.30;;;2.67;;
20731;SDS011;10527;52.124;5.196;2023-09-30T15:19:38;7.95;;;2.38;;
20731;SDS011;10527;52.124;5.196;2023-09-30T15:22:07;4.65;;;1.63;;